Harrisville, MI

8:30 AM EDT on April 30, 2017 (GMT -0400)
KMIOSCOD3 | | Change Station

Elev 582 ft 44.51 °N, 83.32 °W | Updated 8 seconds ago

Rain
Rain
38.7 °F
Feels Like 28 °F
N
24.6
Wind Variable Wind from East
Gusts 27.5 mph

Today
High -- | Low -- °F
--% Chance of Precip.
Yesterday
High -- | Low -- °F
Precip. -- in
Pressure 30.21 in
Visibility 3.0 miles
Clouds Overcast 700 ft
Windchill 28 °F
Dew Point 38 °F
Humidity 99%
Rainfall 0.20 in
Snow Depth Not available.
6:24 AM 8:37 PM
Waxing Crescent, 22% visible
METAR KOSC 301213Z AUTO 06015G20KT 3SM -SN OVC007 03/02 A3021 RMK AO2 T00300020
Pressure 30.21 in
Visibility 3.0 miles
Clouds Overcast 700 ft
Windchill 28 °F
Dew Point 38 °F
Humidity 99%
Rainfall 0.20 in
Snow Depth Not available.
6:24 AM 8:37 PM
Waxing Crescent, 22% visible
METAR KOSC 301213Z AUTO 06015G20KT 3SM -SN OVC007 03/02 A3021 RMK AO2 T00300020

Get Severe Weather Alerts

Thanks for signing up!

Be on the lookout for a verification email in your inbox.

You'll start receiving the daily forecast at 8 AM.

×

10-Day Weather Forecast

Almanac

Astronomy

Apr. 30, 2017 Rise Set
Actual Time
Civil Twilight
Nautical Twilight
Astronomical Twilight
Moon
Length of Visible Light
Length of Day
Tomorrow will be .
, % of the Moon is Illuminated

Today's Extremes

State Highs State Lows

Community

WunderPhotos

WunderBlog® & News

Nearby

Air Quality

  Air Quality AQ Index Pollutant
Not available.

Snow Depth

Station Depth Elevation

Earthquake Activity

City Distance Mag. Time & Date
Minimum magnitude displayed is 2.5.

Coastal Water Temperatures

Place Temperature

Stations

Nearby Weather Stations

Station Location Temp. Windchill Dew Point Humidity Wind Precip. Elev Updated Type
                   

Watches & Warnings

There are currently no watches in effect.